Komandarm Shcherbakov — UCTQ — position and weather

sailwx.info

Track history (hours):
 
Tides and Currents Weather Stations Pressure Air Temp Water Temp Dewpoint Dewpoint Depression Visibility Wind Speed Wind Dir Waves Ship Positions

Komandarm Shcherbakov

Last reported at 2018-Jul-15 22:02 UTC. Time now 2018-Jul-23 13:51 UTC.
Position N 45°25' E 036°41'.

Length 111 m; beam 17 m.

Type: Tanker. MMSI: 273359070.

Date/timePositionNaut miles runAvg speedWind from/ knotsBaromVisibWave heightAir tempDewpointWater temp
2018-Jul-15 22:02N 45°25' E 036°41'0 8.7
2018-Jul-15 21:59N 45°24' E 036°41'4 7.8
2018-Jul-15 21:30N 45°21' E 036°38'11 2.4
2018-Jul-15 16:51N 45°11' E 036°30'0 0.0
2018-Jul-15 16:12N 45°11' E 036°30'0 0.0
2018-Jul-15 15:16N 45°11' E 036°30'8 0.4
2018-Jul-14 18:30N 45°19' E 036°33'4 8.8
2018-Jul-14 18:00N 45°21' E 036°39'7 1.2
2018-Jul-14 11:39N 45°28' E 036°37'0 0.1
2018-Jul-14 11:22N 45°28' E 036°37'2 6.9
2018-Jul-14 11:00N 45°29' E 036°41'  
Track history (hours):
 
Tides and Currents Weather Stations Pressure Air Temp Water Temp Dewpoint Dewpoint Depression Visibility Wind Speed Wind Dir Waves Ship Positions

Komandarm Shcherbakov

Last reported at 2018-Jul-15 22:02 UTC. Time now 2018-Jul-23 13:51 UTC.
Position N 45°25' E 036°41'.

Length 111 m; beam 17 m.

Type: Tanker. MMSI: 273359070.

Date/timePositionNaut miles runAvg speedWind from/ knotsBaromVisibWave heightAir tempDewpointWater temp
2018-Jul-15 22:02N 45°25' E 036°41'0 8.7
2018-Jul-15 21:59N 45°24' E 036°41'4 7.8
2018-Jul-15 21:30N 45°21' E 036°38'11 2.4
2018-Jul-15 16:51N 45°11' E 036°30'0 0.0
2018-Jul-15 16:12N 45°11' E 036°30'0 0.0
2018-Jul-15 15:16N 45°11' E 036°30'8 0.4
2018-Jul-14 18:30N 45°19' E 036°33'4 8.8
2018-Jul-14 18:00N 45°21' E 036°39'7 1.2
2018-Jul-14 11:39N 45°28' E 036°37'0 0.1
2018-Jul-14 11:22N 45°28' E 036°37'2 6.9
2018-Jul-14 11:00N 45°29' E 036°41'  

Dump ship's entire track history